sensor_id;sensor_type;location;lat;lon;timestamp;pressure;altitude;pressure_sealevel;temperature;humidity
19005;BME280;9635;52.078;8.648;2023-02-25T00:00:37;99133.78;;;1.65;85.12
19005;BME280;9635;52.078;8.648;2023-02-25T00:05:41;99124.31;;;1.88;83.79
19005;BME280;9635;52.078;8.648;2023-02-25T00:10:44;99133.75;;;2.19;82.40
19005;BME280;9635;52.078;8.648;2023-02-25T00:15:47;99134.56;;;1.80;83.56
19005;BME280;9635;52.078;8.648;2023-02-25T00:20:51;99129.88;;;1.70;83.12
19005;BME280;9635;52.078;8.648;2023-02-25T00:25:57;99133.66;;;2.21;82.62
19005;BME280;9635;52.078;8.648;2023-02-25T00:31:05;99126.25;;;1.71;83.16
19005;BME280;9635;52.078;8.648;2023-02-25T00:36:13;99134.97;;;2.01;82.54
19005;BME280;9635;52.078;8.648;2023-02-25T00:41:21;99137.69;;;2.26;81.79
19005;BME280;9635;52.078;8.648;2023-02-25T00:46:25;99154.44;;;2.00;82.27
19005;BME280;9635;52.078;8.648;2023-02-25T00:51:30;99145.72;;;1.85;82.80
19005;BME280;9635;52.078;8.648;2023-02-25T00:56:34;99142.44;;;2.21;81.19
19005;BME280;9635;52.078;8.648;2023-02-25T01:01:37;99142.22;;;1.84;82.26
19005;BME280;9635;52.078;8.648;2023-02-25T01:06:42;99142.47;;;1.94;82.40
19005;BME280;9635;52.078;8.648;2023-02-25T01:11:47;99147.13;;;1.90;83.09
19005;BME280;9635;52.078;8.648;2023-02-25T01:16:51;99154.81;;;1.66;83.00
19005;BME280;9635;52.078;8.648;2023-02-25T01:21:57;99157.31;;;1.97;82.89
19005;BME280;9635;52.078;8.648;2023-02-25T01:27:01;99159.72;;;2.14;81.74
19005;BME280;9635;52.078;8.648;2023-02-25T01:32:06;99153.38;;;1.89;83.00
19005;BME280;9635;52.078;8.648;2023-02-25T01:37:10;99159.72;;;2.14;82.63
19005;BME280;9635;52.078;8.648;2023-02-25T01:42:15;99153.38;;;1.89;83.26
19005;BME280;9635;52.078;8.648;2023-02-25T01:47:18;99162.41;;;2.00;82.85
19005;BME280;9635;52.078;8.648;2023-02-25T01:52:23;99169.78;;;1.94;83.57
19005;BME280;9635;52.078;8.648;2023-02-25T01:57:27;99180.72;;;2.17;82.78
19005;BME280;9635;52.078;8.648;2023-02-25T02:02:29;99185.88;;;2.06;82.51
19005;BME280;9635;52.078;8.648;2023-02-25T02:07:40;99195.22;;;2.24;83.16
19005;BME280;9635;52.078;8.648;2023-02-25T02:12:44;99190.81;;;1.83;83.31
19005;BME280;9635;52.078;8.648;2023-02-25T02:17:54;99189.50;;;2.17;83.72
19005;BME280;9635;52.078;8.648;2023-02-25T02:23:16;99188.81;;;2.41;82.21
19005;BME280;9635;52.078;8.648;2023-02-25T02:28:36;99185.53;;;2.37;83.17
19005;BME280;9635;52.078;8.648;2023-02-25T02:33:53;99181.25;;;1.95;83.44
19005;BME280;9635;52.078;8.648;2023-02-25T02:39:04;99166.22;;;1.95;83.84
19005;BME280;9635;52.078;8.648;2023-02-25T02:44:13;99189.44;;;2.05;84.73
19005;BME280;9635;52.078;8.648;2023-02-25T02:49:20;99195.97;;;1.58;84.71
19005;BME280;9635;52.078;8.648;2023-02-25T02:54:29;99188.88;;;2.00;84.49
19005;BME280;9635;52.078;8.648;2023-02-25T02:59:37;99208.84;;;2.32;83.83
19005;BME280;9635;52.078;8.648;2023-02-25T03:04:48;99203.09;;;1.99;84.27
19005;BME280;9635;52.078;8.648;2023-02-25T03:09:53;99207.91;;;2.06;83.86
19005;BME280;9635;52.078;8.648;2023-02-25T03:15:00;99214.75;;;2.23;84.31
19005;BME280;9635;52.078;8.648;2023-02-25T03:20:09;99209.63;;;1.93;84.94
19005;BME280;9635;52.078;8.648;2023-02-25T03:25:19;99208.69;;;2.21;84.15
19005;BME280;9635;52.078;8.648;2023-02-25T03:30:28;99218.16;;;2.25;83.73
19005;BME280;9635;52.078;8.648;2023-02-25T03:35:36;99224.28;;;2.53;83.15
19005;BME280;9635;52.078;8.648;2023-02-25T03:40:42;99222.28;;;2.29;84.13
19005;BME280;9635;52.078;8.648;2023-02-25T03:45:45;99226.75;;;2.29;83.68
19005;BME280;9635;52.078;8.648;2023-02-25T03:50:53;99232.00;;;2.43;83.53
19005;BME280;9635;52.078;8.648;2023-02-25T03:56:02;99245.22;;;1.75;85.00
19005;BME280;9635;52.078;8.648;2023-02-25T04:01:11;99244.06;;;1.93;84.21
19005;BME280;9635;52.078;8.648;2023-02-25T04:06:21;99254.22;;;2.13;82.85
19005;BME280;9635;52.078;8.648;2023-02-25T04:11:25;99252.75;;;1.81;85.01
19005;BME280;9635;52.078;8.648;2023-02-25T04:16:28;99258.28;;;2.19;83.90
19005;BME280;9635;52.078;8.648;2023-02-25T04:21:35;99268.47;;;1.98;84.73
19005;BME280;9635;52.078;8.648;2023-02-25T04:26:40;99253.88;;;1.91;85.18
19005;BME280;9635;52.078;8.648;2023-02-25T04:31:42;99258.59;;;2.00;85.03
19005;BME280;9635;52.078;8.648;2023-02-25T04:36:47;99267.97;;;1.91;84.75
19005;BME280;9635;52.078;8.648;2023-02-25T04:41:50;99283.88;;;2.06;84.47
19005;BME280;9635;52.078;8.648;2023-02-25T04:46:53;99282.69;;;2.24;83.69
19005;BME280;9635;52.078;8.648;2023-02-25T04:51:57;99276.59;;;1.95;85.16
19005;BME280;9635;52.078;8.648;2023-02-25T04:57:00;99279.09;;;2.11;84.26
19005;BME280;9635;52.078;8.648;2023-02-25T05:02:03;99271.94;;;1.99;85.28
19005;BME280;9635;52.078;8.648;2023-02-25T05:07:08;99286.34;;;1.80;85.66
19005;BME280;9635;52.078;8.648;2023-02-25T05:12:11;99279.41;;;2.06;84.76
19005;BME280;9635;52.078;8.648;2023-02-25T05:17:13;99268.34;;;2.41;84.01
19005;BME280;9635;52.078;8.648;2023-02-25T05:22:18;99273.25;;;2.20;84.53
19005;BME280;9635;52.078;8.648;2023-02-25T05:27:21;99277.91;;;2.02;84.93
19005;BME280;9635;52.078;8.648;2023-02-25T05:32:24;99281.09;;;2.07;85.30
19005;BME280;9635;52.078;8.648;2023-02-25T05:37:30;99288.56;;;2.15;85.33
19005;BME280;9635;52.078;8.648;2023-02-25T05:42:32;99298.25;;;1.59;86.66
19005;BME280;9635;52.078;8.648;2023-02-25T05:47:35;99307.72;;;1.77;86.36
19005;BME280;9635;52.078;8.648;2023-02-25T05:52:39;99307.22;;;2.28;84.63
19005;BME280;9635;52.078;8.648;2023-02-25T05:57:42;99309.22;;;2.51;83.50
19005;BME280;9635;52.078;8.648;2023-02-25T06:02:45;99319.84;;;2.37;83.58
19005;BME280;9635;52.078;8.648;2023-02-25T06:07:50;99324.09;;;2.39;83.53
19005;BME280;9635;52.078;8.648;2023-02-25T06:12:52;99322.38;;;2.53;83.00
19005;BME280;9635;52.078;8.648;2023-02-25T06:17:55;99329.50;;;2.38;83.32
19005;BME280;9635;52.078;8.648;2023-02-25T06:22:59;99341.47;;;2.31;83.21
19005;BME280;9635;52.078;8.648;2023-02-25T06:28:02;99348.34;;;2.19;83.31
19005;BME280;9635;52.078;8.648;2023-02-25T06:33:06;99347.72;;;2.15;83.03
19005;BME280;9635;52.078;8.648;2023-02-25T06:38:10;99358.16;;;2.46;82.41
19005;BME280;9635;52.078;8.648;2023-02-25T06:43:13;99364.44;;;2.16;83.07
19005;BME280;9635;52.078;8.648;2023-02-25T06:48:16;99373.47;;;2.28;82.54
19005;BME280;9635;52.078;8.648;2023-02-25T06:53:20;99381.94;;;2.47;82.19
19005;BME280;9635;52.078;8.648;2023-02-25T06:58:24;99384.78;;;2.44;82.19
19005;BME280;9635;52.078;8.648;2023-02-25T07:03:27;99397.09;;;2.31;82.24
19005;BME280;9635;52.078;8.648;2023-02-25T07:08:32;99411.47;;;2.70;81.58
19005;BME280;9635;52.078;8.648;2023-02-25T07:13:34;99421.69;;;2.33;80.50
19005;BME280;9635;52.078;8.648;2023-02-25T07:18:38;99424.38;;;2.61;80.64
19005;BME280;9635;52.078;8.648;2023-02-25T07:23:42;99425.59;;;2.42;79.44
19005;BME280;9635;52.078;8.648;2023-02-25T07:28:46;99440.06;;;2.50;79.32
19005;BME280;9635;52.078;8.648;2023-02-25T07:33:50;99445.75;;;2.44;78.50
19005;BME280;9635;52.078;8.648;2023-02-25T07:38:54;99438.91;;;2.69;79.09
19005;BME280;9635;52.078;8.648;2023-02-25T07:43:58;99451.84;;;3.29;76.49
19005;BME280;9635;52.078;8.648;2023-02-25T07:49:01;99445.03;;;3.25;75.17
19005;BME280;9635;52.078;8.648;2023-02-25T07:54:05;99460.03;;;3.66;76.26
19005;BME280;9635;52.078;8.648;2023-02-25T07:59:08;99453.22;;;3.62;74.07
19005;BME280;9635;52.078;8.648;2023-02-25T08:04:12;99461.00;;;3.65;73.01
19005;BME280;9635;52.078;8.648;2023-02-25T08:09:16;99468.09;;;3.64;71.88
19005;BME280;9635;52.078;8.648;2023-02-25T08:14:20;99467.81;;;3.94;72.49
19005;BME280;9635;52.078;8.648;2023-02-25T08:19:23;99470.47;;;3.82;71.44
19005;BME280;9635;52.078;8.648;2023-02-25T08:24:27;99481.88;;;3.97;72.14
19005;BME280;9635;52.078;8.648;2023-02-25T08:29:30;99485.06;;;3.62;72.69
19005;BME280;9635;52.078;8.648;2023-02-25T08:34:33;99475.34;;;3.75;72.51
19005;BME280;9635;52.078;8.648;2023-02-25T08:39:38;99479.03;;;3.72;71.40
19005;BME280;9635;52.078;8.648;2023-02-25T08:44:40;99463.16;;;3.98;69.20
19005;BME280;9635;52.078;8.648;2023-02-25T08:49:43;99480.09;;;3.70;69.21
19005;BME280;9635;52.078;8.648;2023-02-25T08:54:49;99479.03;;;3.72;71.14
19005;BME280;9635;52.078;8.648;2023-02-25T08:59:52;99493.16;;;3.60;72.87
19005;BME280;9635;52.078;8.648;2023-02-25T09:04:55;99504.19;;;3.27;71.13
19005;BME280;9635;52.078;8.648;2023-02-25T09:09:59;99506.28;;;2.80;68.49
19005;BME280;9635;52.078;8.648;2023-02-25T09:15:06;99516.03;;;2.80;68.24
19005;BME280;9635;52.078;8.648;2023-02-25T09:20:09;99530.72;;;3.27;66.61
19005;BME280;9635;52.078;8.648;2023-02-25T09:25:14;99527.31;;;4.83;63.53
19005;BME280;9635;52.078;8.648;2023-02-25T09:30:17;99524.00;;;6.01;58.97
19005;BME280;9635;52.078;8.648;2023-02-25T09:35:20;99516.50;;;6.53;55.58
19005;BME280;9635;52.078;8.648;2023-02-25T09:40:24;99532.03;;;7.26;55.14
19005;BME280;9635;52.078;8.648;2023-02-25T09:45:30;99530.69;;;7.21;52.08
19005;BME280;9635;52.078;8.648;2023-02-25T09:50:38;99541.91;;;6.23;51.25
19005;BME280;9635;52.078;8.648;2023-02-25T09:55:47;99572.28;;;5.24;54.78
19005;BME280;9635;52.078;8.648;2023-02-25T10:00:57;99588.03;;;4.25;61.77
19005;BME280;9635;52.078;8.648;2023-02-25T10:06:11;99611.19;;;3.42;64.13
19005;BME280;9635;52.078;8.648;2023-02-25T10:11:23;99611.47;;;3.37;66.13
19005;BME280;9635;52.078;8.648;2023-02-25T10:16:40;99616.09;;;3.48;66.20
19005;BME280;9635;52.078;8.648;2023-02-25T10:22:00;99619.00;;;3.99;66.14
19005;BME280;9635;52.078;8.648;2023-02-25T10:27:18;99632.53;;;3.82;65.52
19005;BME280;9635;52.078;8.648;2023-02-25T10:32:24;99643.88;;;3.98;64.61
19005;BME280;9635;52.078;8.648;2023-02-25T10:37:30;99641.28;;;4.64;63.57
19005;BME280;9635;52.078;8.648;2023-02-25T10:42:36;99648.00;;;5.33;60.77
19005;BME280;9635;52.078;8.648;2023-02-25T10:47:40;99649.94;;;5.05;54.98
19005;BME280;9635;52.078;8.648;2023-02-25T10:53:02;99649.72;;;6.78;49.53
19005;BME280;9635;52.078;8.648;2023-02-25T10:58:24;99654.78;;;5.50;48.45
19005;BME280;9635;52.078;8.648;2023-02-25T11:03:29;99651.50;;;4.70;48.63
19005;BME280;9635;52.078;8.648;2023-02-25T11:08:33;99651.69;;;4.54;48.60
19005;BME280;9635;52.078;8.648;2023-02-25T11:13:39;99643.84;;;8.52;42.64
19005;BME280;9635;52.078;8.648;2023-02-25T11:18:42;99654.91;;;8.15;40.25
19005;BME280;9635;52.078;8.648;2023-02-25T11:23:45;99653.69;;;7.64;41.91
19005;BME280;9635;52.078;8.648;2023-02-25T11:28:51;99674.47;;;5.97;44.45
19005;BME280;9635;52.078;8.648;2023-02-25T11:33:56;99673.47;;;5.12;43.38
19005;BME280;9635;52.078;8.648;2023-02-25T11:39:05;99682.59;;;7.14;41.36
19005;BME280;9635;52.078;8.648;2023-02-25T11:44:21;99682.16;;;9.67;37.89
19005;BME280;9635;52.078;8.648;2023-02-25T11:49:30;99685.22;;;11.29;35.56
19005;BME280;9635;52.078;8.648;2023-02-25T11:54:45;99692.06;;;8.94;35.42
19005;BME280;9635;52.078;8.648;2023-02-25T12:00:01;99709.31;;;6.55;39.60
19005;BME280;9635;52.078;8.648;2023-02-25T12:05:25;99711.88;;;6.56;42.78
19005;BME280;9635;52.078;8.648;2023-02-25T12:11:01;99709.00;;;8.18;38.89
19005;BME280;9635;52.078;8.648;2023-02-25T12:16:33;99723.53;;;7.48;39.75
19005;BME280;9635;52.078;8.648;2023-02-25T12:33:30;99751.00;;;6.21;41.80
19005;BME280;9635;52.078;8.648;2023-02-25T12:50:02;99761.59;;;6.33;39.86
19005;BME280;9635;52.078;8.648;2023-02-25T12:55:36;99768.00;;;5.94;40.77
19005;BME280;9635;52.078;8.648;2023-02-25T13:00:56;99762.63;;;5.44;41.91
19005;BME280;9635;52.078;8.648;2023-02-25T13:06:27;99764.31;;;5.45;42.35
19005;BME280;9635;52.078;8.648;2023-02-25T13:11:43;99784.56;;;5.61;43.14
19005;BME280;9635;52.078;8.648;2023-02-25T13:17:27;99779.69;;;6.54;42.59
19005;BME280;9635;52.078;8.648;2023-02-25T13:22:46;99781.41;;;6.18;43.62
19005;BME280;9635;52.078;8.648;2023-02-25T13:28:03;99793.91;;;7.71;38.51
19005;BME280;9635;52.078;8.648;2023-02-25T13:33:19;99802.25;;;5.87;41.34
19005;BME280;9635;52.078;8.648;2023-02-25T13:38:38;99803.00;;;5.25;44.26
19005;BME280;9635;52.078;8.648;2023-02-25T13:43:50;99827.47;;;4.91;46.23
19005;BME280;9635;52.078;8.648;2023-02-25T14:05:58;99821.78;;;6.37;41.60
19005;BME280;9635;52.078;8.648;2023-02-25T14:11:17;99830.69;;;6.12;42.36
19005;BME280;9635;52.078;8.648;2023-02-25T14:16:39;99823.44;;;7.92;40.14
19005;BME280;9635;52.078;8.648;2023-02-25T14:21:58;99828.06;;;9.85;36.21
19005;BME280;9635;52.078;8.648;2023-02-25T14:27:17;99859.09;;;8.15;36.57
19005;BME280;9635;52.078;8.648;2023-02-25T14:32:36;99880.16;;;6.66;38.88
19005;BME280;9635;52.078;8.648;2023-02-25T14:37:54;99867.00;;;7.48;38.31
19005;BME280;9635;52.078;8.648;2023-02-25T14:43:11;99883.91;;;8.51;36.75
19005;BME280;9635;52.078;8.648;2023-02-25T14:48:22;99884.13;;;9.67;35.28
19005;BME280;9635;52.078;8.648;2023-02-25T14:53:48;99905.81;;;7.76;37.21
19005;BME280;9635;52.078;8.648;2023-02-25T15:10:30;99926.53;;;9.09;34.76
19005;BME280;9635;52.078;8.648;2023-02-25T15:15:48;99924.81;;;10.14;34.10
19005;BME280;9635;52.078;8.648;2023-02-25T15:20:58;99927.09;;;9.24;33.76
19005;BME280;9635;52.078;8.648;2023-02-25T15:26:19;99935.09;;;8.69;34.21
19005;BME280;9635;52.078;8.648;2023-02-25T15:31:26;99942.50;;;8.21;35.42
19005;BME280;9635;52.078;8.648;2023-02-25T15:36:41;99948.28;;;7.21;37.61
19005;BME280;9635;52.078;8.648;2023-02-25T15:41:45;99968.72;;;6.34;39.86
19005;BME280;9635;52.078;8.648;2023-02-25T15:47:22;99977.56;;;5.57;40.51
19005;BME280;9635;52.078;8.648;2023-02-25T15:53:00;99986.03;;;4.95;40.94
19005;BME280;9635;52.078;8.648;2023-02-25T16:03:41;100003.25;;;4.46;42.01
19005;BME280;9635;52.078;8.648;2023-02-25T16:08:50;100001.50;;;4.16;42.29
19005;BME280;9635;52.078;8.648;2023-02-25T16:13:54;100009.72;;;4.42;42.94
19005;BME280;9635;52.078;8.648;2023-02-25T16:18:57;100018.06;;;4.22;43.59
19005;BME280;9635;52.078;8.648;2023-02-25T16:24:06;100028.78;;;4.20;43.61
19005;BME280;9635;52.078;8.648;2023-02-25T16:29:20;100034.41;;;4.44;43.14
19005;BME280;9635;52.078;8.648;2023-02-25T16:34:30;100044.94;;;4.31;43.50
19005;BME280;9635;52.078;8.648;2023-02-25T16:39:38;100052.44;;;4.25;44.23
19005;BME280;9635;52.078;8.648;2023-02-25T16:44:46;100055.06;;;3.80;45.54
19005;BME280;9635;52.078;8.648;2023-02-25T16:49:58;100065.81;;;3.47;46.23
19005;BME280;9635;52.078;8.648;2023-02-25T16:55:04;100068.56;;;3.14;47.35
19005;BME280;9635;52.078;8.648;2023-02-25T17:00:17;100079.09;;;2.99;48.06
19005;BME280;9635;52.078;8.648;2023-02-25T17:05:22;100086.47;;;2.77;48.53
19005;BME280;9635;52.078;8.648;2023-02-25T17:10:29;100090.41;;;2.70;49.10
19005;BME280;9635;52.078;8.648;2023-02-25T17:15:34;100103.28;;;2.43;49.44
19005;BME280;9635;52.078;8.648;2023-02-25T17:20:38;100099.59;;;2.45;50.24
19005;BME280;9635;52.078;8.648;2023-02-25T17:25:46;100101.00;;;2.35;50.86
19005;BME280;9635;52.078;8.648;2023-02-25T17:30:50;100112.25;;;2.23;51.60
19005;BME280;9635;52.078;8.648;2023-02-25T17:35:56;100116.06;;;2.17;52.31
19005;BME280;9635;52.078;8.648;2023-02-25T17:41:02;100124.22;;;1.95;53.08
19005;BME280;9635;52.078;8.648;2023-02-25T17:46:15;100137.53;;;1.93;53.15
19005;BME280;9635;52.078;8.648;2023-02-25T17:51:26;100134.56;;;1.82;53.69
19005;BME280;9635;52.078;8.648;2023-02-25T17:56:35;100128.63;;;1.77;52.89
19005;BME280;9635;52.078;8.648;2023-02-25T18:01:46;100132.97;;;1.78;52.86
19005;BME280;9635;52.078;8.648;2023-02-25T18:06:50;100134.59;;;1.63;53.25
19005;BME280;9635;52.078;8.648;2023-02-25T18:11:56;100149.84;;;1.58;53.91
19005;BME280;9635;52.078;8.648;2023-02-25T18:17:10;100158.06;;;1.52;54.22
19005;BME280;9635;52.078;8.648;2023-02-25T18:22:32;100157.06;;;1.36;54.34
19005;BME280;9635;52.078;8.648;2023-02-25T18:27:36;100159.00;;;1.32;54.57
19005;BME280;9635;52.078;8.648;2023-02-25T18:32:39;100172.38;;;1.29;54.60
19005;BME280;9635;52.078;8.648;2023-02-25T18:37:43;100176.53;;;1.16;55.29
19005;BME280;9635;52.078;8.648;2023-02-25T18:42:49;100179.69;;;1.03;55.92
19005;BME280;9635;52.078;8.648;2023-02-25T18:47:52;100187.44;;;0.88;55.74
19005;BME280;9635;52.078;8.648;2023-02-25T18:52:57;100187.59;;;0.84;55.99
19005;BME280;9635;52.078;8.648;2023-02-25T18:58:02;100190.84;;;0.91;55.72
19005;BME280;9635;52.078;8.648;2023-02-25T19:03:05;100181.16;;;0.90;55.94
19005;BME280;9635;52.078;8.648;2023-02-25T19:08:12;100195.13;;;0.73;55.89
19005;BME280;9635;52.078;8.648;2023-02-25T19:13:20;100203.22;;;1.10;56.66
19005;BME280;9635;52.078;8.648;2023-02-25T19:18:25;100198.59;;;1.15;55.84
19005;BME280;9635;52.078;8.648;2023-02-25T19:23:28;100207.66;;;1.30;55.13
19005;BME280;9635;52.078;8.648;2023-02-25T19:28:32;100213.00;;;1.28;55.66
19005;BME280;9635;52.078;8.648;2023-02-25T19:33:35;100212.56;;;1.18;56.88
19005;BME280;9635;52.078;8.648;2023-02-25T19:38:38;100221.13;;;1.23;57.34
19005;BME280;9635;52.078;8.648;2023-02-25T19:43:42;100225.53;;;1.04;58.61
19005;BME280;9635;52.078;8.648;2023-02-25T19:48:45;100237.91;;;1.03;60.61
19005;BME280;9635;52.078;8.648;2023-02-25T19:53:48;100239.81;;;1.00;62.05
19005;BME280;9635;52.078;8.648;2023-02-25T19:58:56;100254.72;;;1.02;62.57
19005;BME280;9635;52.078;8.648;2023-02-25T20:03:59;100254.00;;;0.99;63.11
19005;BME280;9635;52.078;8.648;2023-02-25T20:09:04;100274.09;;;0.82;63.42
19005;BME280;9635;52.078;8.648;2023-02-25T20:14:09;100283.59;;;0.87;63.73
19005;BME280;9635;52.078;8.648;2023-02-25T20:19:14;100288.47;;;0.96;63.89
19005;BME280;9635;52.078;8.648;2023-02-25T20:24:17;100286.72;;;0.96;64.16
19005;BME280;9635;52.078;8.648;2023-02-25T20:29:21;100276.19;;;0.95;64.45
19005;BME280;9635;52.078;8.648;2023-02-25T20:34:24;100294.72;;;0.95;64.57
19005;BME280;9635;52.078;8.648;2023-02-25T20:39:38;100291.94;;;0.98;64.90
19005;BME280;9635;52.078;8.648;2023-02-25T20:44:48;100314.69;;;1.02;65.21
19005;BME280;9635;52.078;8.648;2023-02-25T20:49:53;100315.56;;;1.02;65.64
19005;BME280;9635;52.078;8.648;2023-02-25T20:54:56;100303.03;;;0.86;66.66
19005;BME280;9635;52.078;8.648;2023-02-25T21:00:00;100309.59;;;0.97;67.21
19005;BME280;9635;52.078;8.648;2023-02-25T21:05:04;100318.91;;;0.86;67.83
19005;BME280;9635;52.078;8.648;2023-02-25T21:10:08;100330.00;;;0.51;68.95
19005;BME280;9635;52.078;8.648;2023-02-25T21:15:13;100332.72;;;0.50;69.19
19005;BME280;9635;52.078;8.648;2023-02-25T21:20:16;100335.09;;;0.34;69.61
19005;BME280;9635;52.078;8.648;2023-02-25T21:25:18;100339.03;;;0.24;69.86
19005;BME280;9635;52.078;8.648;2023-02-25T21:30:23;100348.28;;;0.12;70.39
19005;BME280;9635;52.078;8.648;2023-02-25T21:35:27;100351.34;;;0.01;70.53
19005;BME280;9635;52.078;8.648;2023-02-25T21:40:30;100360.06;;;0.03;70.51
19005;BME280;9635;52.078;8.648;2023-02-25T21:45:34;100363.81;;;-0.02;70.58
19005;BME280;9635;52.078;8.648;2023-02-25T21:50:43;100363.09;;;-0.08;70.63
19005;BME280;9635;52.078;8.648;2023-02-25T21:55:46;100366.00;;;-0.14;70.26
19005;BME280;9635;52.078;8.648;2023-02-25T22:00:50;100369.69;;;-0.19;70.70
19005;BME280;9635;52.078;8.648;2023-02-25T22:05:53;100373.25;;;-0.20;70.51
19005;BME280;9635;52.078;8.648;2023-02-25T22:10:56;100383.31;;;-0.30;70.38
19005;BME280;9635;52.078;8.648;2023-02-25T22:16:01;100387.00;;;-0.36;70.36
19005;BME280;9635;52.078;8.648;2023-02-25T22:21:07;100392.38;;;-0.39;70.39
19005;BME280;9635;52.078;8.648;2023-02-25T22:26:11;100392.38;;;-0.39;70.46
19005;BME280;9635;52.078;8.648;2023-02-25T22:31:17;100393.19;;;-0.37;70.40
19005;BME280;9635;52.078;8.648;2023-02-25T22:36:20;100394.88;;;-0.34;70.22
19005;BME280;9635;52.078;8.648;2023-02-25T22:41:25;100393.03;;;-0.32;70.06
19005;BME280;9635;52.078;8.648;2023-02-25T22:46:32;100400.97;;;-0.32;69.91
19005;BME280;9635;52.078;8.648;2023-02-25T22:51:38;100397.66;;;-0.39;69.69
19005;BME280;9635;52.078;8.648;2023-02-25T22:56:43;100405.88;;;-0.46;69.79
19005;BME280;9635;52.078;8.648;2023-02-25T23:01:47;100413.09;;;-0.52;69.42
19005;BME280;9635;52.078;8.648;2023-02-25T23:06:50;100415.13;;;-0.60;69.86
19005;BME280;9635;52.078;8.648;2023-02-25T23:11:56;100419.69;;;-0.65;69.89
19005;BME280;9635;52.078;8.648;2023-02-25T23:17:01;100415.31;;;-0.66;69.48
19005;BME280;9635;52.078;8.648;2023-02-25T23:22:05;100431.22;;;-0.67;69.66
19005;BME280;9635;52.078;8.648;2023-02-25T23:27:10;100424.38;;;-0.73;69.60
19005;BME280;9635;52.078;8.648;2023-02-25T23:32:14;100432.50;;;-0.79;69.28
19005;BME280;9635;52.078;8.648;2023-02-25T23:37:16;100445.63;;;-0.78;69.11
19005;BME280;9635;52.078;8.648;2023-02-25T23:42:19;100451.00;;;-0.81;69.15
19005;BME280;9635;52.078;8.648;2023-02-25T23:47:23;100457.09;;;-0.79;69.23
19005;BME280;9635;52.078;8.648;2023-02-25T23:52:26;100460.72;;;-0.83;69.13
19005;BME280;9635;52.078;8.648;2023-02-25T23:57:29;100467.06;;;-0.88;68.95
